createdAt,value
2023-04-05T00:01:37.588Z,20.70
2023-04-05T00:04:08.479Z,23.63
2023-04-05T00:06:39.994Z,25.97
2023-04-05T00:09:08.398Z,23.90
2023-04-05T00:11:37.147Z,22.50
2023-04-05T00:14:05.310Z,20.17
2023-04-05T00:16:34.447Z,25.00
2023-04-05T00:19:02.606Z,22.37
2023-04-05T00:21:34.996Z,21.50
2023-04-05T00:24:05.334Z,22.03
2023-04-05T00:26:35.417Z,21.30
2023-04-05T00:29:03.639Z,21.27
2023-04-05T00:31:31.876Z,20.37
2023-04-05T00:34:00.009Z,22.50
2023-04-05T00:36:30.436Z,20.63
2023-04-05T00:39:01.365Z,21.00
2023-04-05T00:41:31.448Z,22.63
2023-04-05T00:43:59.992Z,28.87
2023-04-05T00:46:30.980Z,25.90
2023-04-05T00:48:59.127Z,27.37
2023-04-05T00:51:33.695Z,23.90
2023-04-05T00:54:03.147Z,29.93
2023-04-05T00:56:33.437Z,30.63
2023-04-05T00:59:04.247Z,31.20
2023-04-05T01:01:38.458Z,29.30
2023-04-05T01:04:08.456Z,29.83
2023-04-05T01:07:06.527Z,29.70
2023-04-05T01:09:39.673Z,27.93
2023-04-05T01:12:14.430Z,32.33
2023-04-05T01:14:47.524Z,25.27
2023-04-05T01:17:22.658Z,30.13
2023-04-05T01:19:53.357Z,33.67
2023-04-05T01:22:56.432Z,28.83
2023-04-05T01:25:50.660Z,34.57
2023-04-05T01:28:45.201Z,32.23
2023-04-05T01:31:24.419Z,29.10
2023-04-05T01:34:01.393Z,34.33
2023-04-05T01:36:40.759Z,31.60
2023-04-05T01:39:12.718Z,29.47
2023-04-05T01:41:41.244Z,27.57
2023-04-05T01:44:10.340Z,30.33
2023-04-05T01:46:41.479Z,33.77
2023-04-05T01:49:10.376Z,30.00
2023-04-05T01:51:42.193Z,27.80
2023-04-05T01:54:10.515Z,29.17
2023-04-05T01:56:40.295Z,29.60
2023-04-05T01:59:08.663Z,30.53
2023-04-05T02:01:36.847Z,25.83
2023-04-05T02:04:06.420Z,30.27
2023-04-05T02:06:35.278Z,29.60
2023-04-05T02:09:03.538Z,26.37
2023-04-05T02:11:31.594Z,25.50
2023-04-05T02:14:04.437Z,24.63
2023-04-05T02:16:33.620Z,25.60
2023-04-05T02:19:02.437Z,25.67
2023-04-05T02:21:32.692Z,26.83
2023-04-05T02:24:05.011Z,32.87
2023-04-05T02:26:33.479Z,31.60
2023-04-05T02:29:01.682Z,34.20
2023-04-05T02:31:29.985Z,31.43
2023-04-05T02:34:00.991Z,27.50
2023-04-05T02:39:23.032Z,30.83
2023-04-05T02:41:51.149Z,29.77
2023-04-05T02:44:20.331Z,32.93
2023-04-05T02:46:49.305Z,29.83
2023-04-05T02:49:18.602Z,32.23
2023-04-05T02:51:48.265Z,30.97
2023-04-05T02:54:17.448Z,28.20
2023-04-05T02:56:50.013Z,31.13
2023-04-05T02:59:21.542Z,29.73
2023-04-05T03:01:50.460Z,27.93
2023-04-05T03:04:26.963Z,26.80
2023-04-05T03:07:03.468Z,28.67
2023-04-05T03:09:33.873Z,35.70
2023-04-05T03:12:08.718Z,23.37
2023-04-05T03:14:42.443Z,31.17
2023-04-05T03:17:15.466Z,30.60
2023-04-05T03:19:48.350Z,27.87
2023-04-05T03:22:28.444Z,33.70
2023-04-05T03:24:58.730Z,29.17
2023-04-05T03:27:30.465Z,32.13
2023-04-05T03:30:07.706Z,32.63
2023-04-05T03:32:41.580Z,31.10
2023-04-05T03:35:23.469Z,28.73
2023-04-05T03:37:52.475Z,33.10
2023-04-05T03:40:21.458Z,28.03
2023-04-05T03:42:52.498Z,35.57
2023-04-05T03:45:24.264Z,28.60
2023-04-05T03:47:56.182Z,27.70
2023-04-05T03:50:24.368Z,29.43
2023-04-05T03:52:54.461Z,28.20
2023-04-05T03:55:24.282Z,29.70
2023-04-05T03:57:58.615Z,29.50
2023-04-05T04:00:33.360Z,30.73
2023-04-05T04:03:22.552Z,32.07
2023-04-05T04:05:53.014Z,30.97
2023-04-05T04:08:22.166Z,33.53
2023-04-05T04:10:50.913Z,28.83
2023-04-05T04:13:24.818Z,30.63
2023-04-05T04:16:05.610Z,30.10
2023-04-05T04:18:48.594Z,31.23
2023-04-05T04:21:37.480Z,35.10
2023-04-05T04:24:22.081Z,30.47
2023-04-05T04:27:05.539Z,30.07
2023-04-05T04:29:49.601Z,28.03
2023-04-05T04:32:58.828Z,30.80
2023-04-05T04:35:39.319Z,29.57
2023-04-05T04:38:27.868Z,27.53
2023-04-05T04:41:27.020Z,27.60
2023-04-05T04:44:15.472Z,25.60
2023-04-05T04:47:14.843Z,26.60
2023-04-05T04:50:03.453Z,32.67
2023-04-05T04:52:31.678Z,32.17
2023-04-05T04:54:59.828Z,29.70
2023-04-05T04:57:27.943Z,24.87
2023-04-05T04:59:56.772Z,35.53
2023-04-05T05:02:28.695Z,31.50
2023-04-05T05:04:58.813Z,26.73
2023-04-05T05:07:26.899Z,26.93
2023-04-05T05:09:55.079Z,27.60
2023-04-05T05:12:23.785Z,24.87
2023-04-05T05:14:52.019Z,31.10
2023-04-05T05:17:23.526Z,27.43
2023-04-05T05:19:54.660Z,26.97
2023-04-05T05:22:24.306Z,25.27
2023-04-05T05:24:52.614Z,23.83
2023-04-05T05:27:21.582Z,31.17
2023-04-05T05:29:49.734Z,33.90
2023-04-05T05:32:17.826Z,28.90
2023-04-05T05:34:48.648Z,29.20
2023-04-05T05:37:18.233Z,24.33
2023-04-05T05:39:46.413Z,21.63
2023-04-05T05:42:14.514Z,28.93
2023-04-05T05:44:42.630Z,33.47
2023-04-05T05:47:14.237Z,32.60
2023-04-05T05:49:42.519Z,32.73
2023-04-05T05:52:11.078Z,31.60
2023-04-05T05:54:40.527Z,28.23
2023-04-05T05:57:08.694Z,27.63
2023-04-05T05:59:37.325Z,27.10
2023-04-05T06:02:05.497Z,25.83
2023-04-05T06:04:37.261Z,28.27
2023-04-05T06:07:06.875Z,32.40
2023-04-05T06:09:35.307Z,23.43
2023-04-05T06:12:05.484Z,24.60
2023-04-05T06:14:33.630Z,22.73
2023-04-05T06:17:01.801Z,27.47
2023-04-05T06:19:29.929Z,24.90
2023-04-05T06:22:00.909Z,26.40
2023-04-05T06:24:31.876Z,25.37
2023-04-05T06:27:00.234Z,23.77
2023-04-05T06:29:29.642Z,23.57
2023-04-05T06:31:58.098Z,22.67
2023-04-05T06:34:28.284Z,23.93
2023-04-05T06:36:56.756Z,23.10
2023-04-05T06:39:25.001Z,25.10
2023-04-05T06:41:53.043Z,24.10
2023-04-05T06:44:29.096Z,22.00
2023-04-05T06:46:58.580Z,24.13
2023-04-05T06:49:26.642Z,26.23
2023-04-05T06:51:54.851Z,22.53
2023-04-05T06:54:24.132Z,22.57
2023-04-05T06:56:52.604Z,21.13
2023-04-05T06:59:23.955Z,22.53
2023-04-05T07:01:52.016Z,24.97
2023-04-05T07:04:22.568Z,24.37
2023-04-05T07:06:51.071Z,23.53
2023-04-05T07:09:20.709Z,23.60
2023-04-05T07:11:52.296Z,18.93
2023-04-05T07:14:21.709Z,24.07
2023-04-05T07:16:50.240Z,19.00
2023-04-05T07:19:18.534Z,17.87
2023-04-05T07:21:48.509Z,25.47
2023-04-05T07:24:21.531Z,17.87
2023-04-05T07:26:49.698Z,14.23
2023-04-05T07:29:17.801Z,14.90
2023-04-05T07:31:46.461Z,19.33
2023-04-05T07:34:14.933Z,25.27
2023-04-05T07:36:43.363Z,20.17
2023-04-05T07:39:14.446Z,19.30
2023-04-05T07:41:43.386Z,19.23
2023-04-05T07:44:12.062Z,26.07
2023-04-05T07:46:46.918Z,18.73
2023-04-05T07:49:16.767Z,15.77
2023-04-05T07:51:46.480Z,19.80
2023-04-05T07:54:16.228Z,13.93
2023-04-05T07:56:44.416Z,12.60
2023-04-05T07:59:14.970Z,12.10
2023-04-05T08:01:43.754Z,12.90
2023-04-05T08:04:11.844Z,13.40
2023-04-05T08:06:40.158Z,12.63
2023-04-05T08:09:09.155Z,16.30
2023-04-05T08:11:39.162Z,13.70
2023-04-05T08:14:07.386Z,16.20
2023-04-05T08:16:37.623Z,11.80
2023-04-05T08:19:06.275Z,12.83
2023-04-05T08:21:34.343Z,27.30
2023-04-05T08:24:02.480Z,13.00
2023-04-05T08:26:30.812Z,14.43
2023-04-05T08:29:00.572Z,12.83
2023-04-05T08:31:30.141Z,12.53
2023-04-05T08:34:00.136Z,12.10
2023-04-05T08:36:28.258Z,13.80
2023-04-05T08:38:56.453Z,10.77
2023-04-05T08:41:26.222Z,11.07
2023-04-05T08:43:59.032Z,8.73
2023-04-05T08:46:32.569Z,6.60
2023-04-05T08:49:02.029Z,3.77
2023-04-05T08:51:31.167Z,9.47
2023-04-05T08:54:01.438Z,10.93
2023-04-05T08:56:33.624Z,8.97
2023-04-05T08:59:04.891Z,6.63
2023-04-05T09:01:40.178Z,7.53
2023-04-05T09:04:11.497Z,7.10
2023-04-05T09:06:40.675Z,8.10
2023-04-05T09:09:09.681Z,6.90
2023-04-05T09:11:38.588Z,5.33
2023-04-05T09:14:07.476Z,6.40
2023-04-05T09:16:41.365Z,7.37
2023-04-05T09:19:13.683Z,4.87
2023-04-05T09:22:04.147Z,5.17
2023-04-05T09:24:41.694Z,4.70
2023-04-05T09:27:11.536Z,8.13
2023-04-05T09:29:46.616Z,4.33
2023-04-05T09:32:18.215Z,4.17
2023-04-05T09:34:48.110Z,4.50
2023-04-05T09:37:29.381Z,4.73
2023-04-05T09:40:04.539Z,3.43
2023-04-05T09:42:44.833Z,4.30
2023-04-05T09:45:13.768Z,6.57
2023-04-05T09:47:58.680Z,5.70
2023-04-05T09:50:27.262Z,5.47
2023-04-05T09:53:08.125Z,18.10
2023-04-05T09:55:36.713Z,5.63
2023-04-05T09:58:05.010Z,4.10
2023-04-05T10:00:33.578Z,4.47
2023-04-05T10:03:03.085Z,3.70
2023-04-05T10:05:32.655Z,5.23
2023-04-05T10:08:02.186Z,3.03
2023-04-05T10:10:32.851Z,5.10
2023-04-05T10:13:01.772Z,3.53
2023-04-05T10:15:31.609Z,4.27
2023-04-05T10:18:09.859Z,3.17
2023-04-05T10:20:41.759Z,2.50
2023-04-05T10:23:13.901Z,6.03
2023-04-05T10:25:52.531Z,7.50
2023-04-05T10:28:31.965Z,6.03
2023-04-05T10:31:10.695Z,5.70
2023-04-05T10:33:45.435Z,7.53
2023-04-05T10:36:23.258Z,5.10
2023-04-05T10:39:01.882Z,18.20
2023-04-05T10:41:35.099Z,5.00
2023-04-05T10:44:14.797Z,4.50
2023-04-05T10:46:47.933Z,8.00
2023-04-05T10:49:23.574Z,3.53
2023-04-05T10:51:55.440Z,3.80
2023-04-05T10:54:25.158Z,6.70
2023-04-05T10:56:53.796Z,7.83
2023-04-05T10:59:23.695Z,4.63
2023-04-05T11:01:58.832Z,5.07
2023-04-05T11:04:28.420Z,5.60
2023-04-05T11:07:13.739Z,5.10
2023-04-05T11:09:54.435Z,3.80
2023-04-05T11:13:03.462Z,4.07
2023-04-05T11:15:36.436Z,6.53
2023-04-05T11:18:06.547Z,6.00
2023-04-05T11:20:51.782Z,8.13
2023-04-05T11:23:21.646Z,4.87
2023-04-05T11:25:55.740Z,4.30
2023-04-05T11:28:31.832Z,5.53
2023-04-05T11:31:15.260Z,9.10
2023-04-05T11:33:59.451Z,3.63
2023-04-05T11:36:39.598Z,2.87
2023-04-05T11:39:30.075Z,3.17
2023-04-05T11:42:02.796Z,5.80
2023-04-05T11:44:40.328Z,4.43
2023-04-05T11:47:12.950Z,8.87
2023-04-05T11:49:42.461Z,8.53
2023-04-05T11:52:20.619Z,3.97
2023-04-05T11:54:49.706Z,4.33
2023-04-05T11:57:21.435Z,2.93
2023-04-05T11:59:53.193Z,4.83
2023-04-05T12:02:21.949Z,3.23
2023-04-05T12:04:59.471Z,4.43
2023-04-05T12:07:32.605Z,3.33
2023-04-05T12:10:07.950Z,3.83
2023-04-05T12:12:38.474Z,5.53
2023-04-05T12:15:09.621Z,7.13
2023-04-05T12:17:45.536Z,4.90
2023-04-05T12:20:16.140Z,4.03
2023-04-05T12:22:48.643Z,5.10
2023-04-05T12:25:20.478Z,5.33
2023-04-05T12:27:49.640Z,5.73
2023-04-05T12:30:19.223Z,5.00
2023-04-05T12:32:52.564Z,5.30
2023-04-05T12:35:21.903Z,5.07
2023-04-05T12:37:53.116Z,6.00
2023-04-05T12:40:23.026Z,5.07
2023-04-05T12:42:51.450Z,11.87
2023-04-05T12:45:19.711Z,7.83
2023-04-05T12:47:52.955Z,4.60
2023-04-05T12:50:28.244Z,6.37
2023-04-05T12:52:59.658Z,5.97
2023-04-05T12:55:29.425Z,6.83
2023-04-05T12:58:00.464Z,4.53
2023-04-05T13:00:31.012Z,9.33
2023-04-05T13:03:01.174Z,5.60
2023-04-05T13:05:31.099Z,12.43
2023-04-05T13:08:03.430Z,5.30
2023-04-05T13:10:31.669Z,7.03
2023-04-05T13:12:59.845Z,7.00
2023-04-05T13:15:29.070Z,7.47
2023-04-05T13:17:57.195Z,6.03
2023-04-05T13:20:25.516Z,3.47
2023-04-05T13:22:53.735Z,5.03
2023-04-05T13:25:23.763Z,4.27
2023-04-05T13:27:52.705Z,3.27
2023-04-05T13:30:21.573Z,3.33
2023-04-05T13:32:50.780Z,4.27
2023-04-05T13:35:19.006Z,6.50
2023-04-05T13:37:47.677Z,5.10
2023-04-05T13:40:16.595Z,5.47
2023-04-05T13:42:48.816Z,6.53
2023-04-05T13:45:17.218Z,6.60
2023-04-05T13:47:45.314Z,3.87
2023-04-05T13:50:13.524Z,6.47
2023-04-05T13:52:41.702Z,6.40
2023-04-05T13:55:10.050Z,8.07
2023-04-05T13:57:38.179Z,5.17
2023-04-05T14:00:09.389Z,7.80
2023-04-05T14:02:41.784Z,7.63
2023-04-05T14:05:10.646Z,5.03
2023-04-05T14:07:42.491Z,6.37
2023-04-05T14:10:11.685Z,4.13
2023-04-05T14:12:43.750Z,5.43
2023-04-05T14:15:13.397Z,5.93
2023-04-05T14:17:43.445Z,5.77
2023-04-05T14:20:12.483Z,4.90
2023-04-05T14:22:40.674Z,5.03
2023-04-05T14:25:10.993Z,5.90
2023-04-05T14:27:42.768Z,4.00
2023-04-05T14:30:13.334Z,4.47
2023-04-05T14:32:41.617Z,5.10
2023-04-05T14:35:11.689Z,4.27
2023-04-05T14:37:39.868Z,5.73
2023-04-05T14:40:09.710Z,4.67
2023-04-05T14:42:49.225Z,6.30
2023-04-05T14:45:19.879Z,4.93
2023-04-05T14:47:49.477Z,4.17
2023-04-05T14:50:17.850Z,4.00
2023-04-05T14:52:46.913Z,6.23
2023-04-05T14:55:16.559Z,5.57
2023-04-05T14:57:44.840Z,3.73
2023-04-05T15:00:17.443Z,4.77
2023-04-05T15:02:48.417Z,5.43
2023-04-05T15:05:17.723Z,3.20
2023-04-05T15:07:45.827Z,3.63
2023-04-05T15:10:15.742Z,4.17
2023-04-05T15:12:47.375Z,3.83
2023-04-05T15:15:18.640Z,4.83
2023-04-05T15:17:48.169Z,5.73
2023-04-05T15:20:16.805Z,4.93
2023-04-05T15:22:45.749Z,5.63
2023-04-05T15:25:13.869Z,8.63
2023-04-05T15:27:42.723Z,4.37
2023-04-05T15:30:12.698Z,8.77
2023-04-05T15:32:41.758Z,6.90
2023-04-05T15:35:11.569Z,5.27
2023-04-05T15:37:43.331Z,6.27
2023-04-05T15:40:12.034Z,6.50
2023-04-05T15:42:40.639Z,6.00
2023-04-05T15:45:11.768Z,5.90
2023-04-05T15:47:39.979Z,4.90
2023-04-05T15:50:08.688Z,6.67
2023-04-05T15:52:38.952Z,10.33
2023-04-05T15:55:07.644Z,9.50
2023-04-05T15:57:36.663Z,3.97
2023-04-05T16:00:05.606Z,4.83
2023-04-05T16:02:33.842Z,3.10
2023-04-05T16:05:04.526Z,12.37
2023-04-05T16:07:33.003Z,9.03
2023-04-05T16:10:03.342Z,6.27
2023-04-05T16:12:31.519Z,7.70
2023-04-05T16:14:59.775Z,5.47
2023-04-05T16:17:28.045Z,5.27
2023-04-05T16:19:57.203Z,4.27
2023-04-05T16:22:25.874Z,5.33
2023-04-05T16:24:53.963Z,4.60
2023-04-05T16:27:23.480Z,36.47
2023-04-05T16:29:51.529Z,21.80
2023-04-05T16:32:21.856Z,5.60
2023-04-05T16:34:53.379Z,3.17
2023-04-05T16:37:21.479Z,5.57
2023-04-05T16:39:53.689Z,5.77
2023-04-05T16:42:23.192Z,5.83
2023-04-05T16:44:51.872Z,6.40
2023-04-05T16:47:19.977Z,5.60
2023-04-05T16:49:48.860Z,6.83
2023-04-05T16:52:16.976Z,6.63
2023-04-05T16:54:46.892Z,6.03
2023-04-05T16:57:15.161Z,8.53
2023-04-05T16:59:44.947Z,6.40
2023-04-05T17:02:18.109Z,7.53
2023-04-05T17:04:48.561Z,5.57
2023-04-05T17:07:16.676Z,9.47
2023-04-05T17:09:44.940Z,6.53
2023-04-05T17:12:13.428Z,9.07
2023-04-05T17:14:46.761Z,10.77
2023-04-05T17:17:14.889Z,8.73
2023-04-05T17:19:43.374Z,6.77
2023-04-05T17:22:11.592Z,7.70
2023-04-05T17:24:39.709Z,5.97
2023-04-05T17:27:07.972Z,9.30
2023-04-05T17:29:36.027Z,6.47
2023-04-05T17:32:05.593Z,5.00
2023-04-05T17:34:33.869Z,5.87
2023-04-05T17:37:02.097Z,6.57
2023-04-05T17:39:30.298Z,5.53
2023-04-05T17:41:58.577Z,8.10
2023-04-05T17:44:26.841Z,5.60
2023-04-05T17:47:07.998Z,6.53
2023-04-05T17:49:38.944Z,10.10
2023-04-05T17:52:09.389Z,8.80
2023-04-05T17:54:38.067Z,9.20
2023-04-05T17:57:06.611Z,9.20
2023-04-05T17:59:34.826Z,12.00
2023-04-05T18:02:02.978Z,12.53
2023-04-05T18:04:31.185Z,17.17
2023-04-05T18:07:01.379Z,13.87
2023-04-05T18:09:32.381Z,12.57
2023-04-05T18:12:01.132Z,12.20
2023-04-05T18:14:30.365Z,10.90
2023-04-05T18:16:59.300Z,11.10
2023-04-05T18:19:27.976Z,8.67
2023-04-05T18:21:58.416Z,10.30
2023-04-05T18:24:29.163Z,11.57
2023-04-05T18:26:57.752Z,11.97
2023-04-05T18:29:28.624Z,9.40
2023-04-05T18:31:57.363Z,10.30
2023-04-05T18:34:25.651Z,12.23
2023-04-05T18:36:53.804Z,10.60
2023-04-05T18:39:23.851Z,10.43
2023-04-05T18:41:55.096Z,11.07
2023-04-05T18:44:23.224Z,11.07
2023-04-05T18:46:52.295Z,11.93
2023-04-05T18:49:21.283Z,13.50
2023-04-05T18:51:51.218Z,8.43
2023-04-05T18:54:19.409Z,11.77
2023-04-05T18:56:47.543Z,12.03
2023-04-05T18:59:20.248Z,12.80
2023-04-05T19:01:48.401Z,12.13
2023-04-05T19:04:19.257Z,8.93
2023-04-05T19:06:47.612Z,11.73
2023-04-05T19:09:16.709Z,13.73
2023-04-05T19:11:44.782Z,10.13
2023-04-05T19:14:16.360Z,10.87
2023-04-05T19:16:46.040Z,12.13
2023-04-05T19:19:14.587Z,13.07
2023-04-05T19:21:42.859Z,11.43
2023-04-05T19:24:16.424Z,10.73
2023-04-05T19:26:44.914Z,8.93
2023-04-05T19:29:13.034Z,38.10
2023-04-05T19:31:42.009Z,14.90
2023-04-05T19:34:11.595Z,10.13
2023-04-05T19:36:39.759Z,10.73
2023-04-05T19:39:12.497Z,7.20
2023-04-05T19:41:43.086Z,10.47
2023-04-05T19:44:13.151Z,7.97
2023-04-05T19:46:41.927Z,8.27
2023-04-05T19:49:14.339Z,8.37
2023-04-05T19:51:43.727Z,6.30
2023-04-05T19:54:14.913Z,7.60
2023-04-05T19:56:43.427Z,10.17
2023-04-05T19:59:29.111Z,14.87
2023-04-05T20:01:59.870Z,18.67
2023-04-05T20:04:36.395Z,15.60
2023-04-05T20:07:08.199Z,15.93
2023-04-05T20:09:40.168Z,14.63
2023-04-05T20:12:13.348Z,13.33
2023-04-05T20:14:43.808Z,13.83
2023-04-05T20:17:13.424Z,11.43
2023-04-05T20:19:56.116Z,11.93
2023-04-05T20:22:29.015Z,12.30
2023-04-05T20:24:59.388Z,15.23
2023-04-05T20:27:27.713Z,13.73
2023-04-05T20:29:57.851Z,16.30
2023-04-05T20:32:29.108Z,14.00
2023-04-05T20:34:58.873Z,12.10
2023-04-05T20:37:26.984Z,12.93
2023-04-05T20:39:55.356Z,12.40
2023-04-05T20:42:23.803Z,13.37
2023-04-05T20:44:51.882Z,10.73
2023-04-05T20:47:23.520Z,11.27
2023-04-05T20:49:51.704Z,18.73
2023-04-05T20:52:23.846Z,17.27
2023-04-05T20:54:52.834Z,14.07
2023-04-05T20:57:20.879Z,11.57
2023-04-05T20:59:51.822Z,13.30
2023-04-05T21:02:19.925Z,12.60
2023-04-05T21:04:50.868Z,15.87
2023-04-05T21:07:19.014Z,15.70
2023-04-05T21:09:48.452Z,16.63
2023-04-05T21:12:19.844Z,16.80
2023-04-05T21:14:47.869Z,14.37
2023-04-05T21:17:18.866Z,15.77
2023-04-05T21:19:46.993Z,13.63
2023-04-05T21:22:15.049Z,10.93
2023-04-05T21:24:44.826Z,12.10
2023-04-05T21:27:14.987Z,13.30
2023-04-05T21:29:46.824Z,14.10
2023-04-05T21:32:14.921Z,15.57
2023-04-05T21:34:43.836Z,19.07
2023-04-05T21:37:15.843Z,49.77
2023-04-05T21:39:43.996Z,33.50
2023-04-05T21:42:12.827Z,34.17
2023-04-05T21:44:42.268Z,38.63
2023-04-05T21:47:10.866Z,36.53
2023-04-05T21:49:39.695Z,40.17
2023-04-05T21:52:07.818Z,33.60
2023-04-05T21:54:36.824Z,23.73
2023-04-05T21:57:04.996Z,22.03
2023-04-05T21:59:33.847Z,21.83
2023-04-05T22:02:03.843Z,20.80
2023-04-05T22:04:31.997Z,17.90
2023-04-05T22:07:04.439Z,16.07
2023-04-05T22:09:33.857Z,14.50
2023-04-05T22:12:03.070Z,13.40
2023-04-05T22:14:31.248Z,11.90
2023-04-05T22:16:59.406Z,11.97
2023-04-05T22:19:32.472Z,13.50
2023-04-05T22:22:00.596Z,12.37
2023-04-05T22:24:31.445Z,12.47
2023-04-05T22:27:00.005Z,11.47
2023-04-05T22:29:28.076Z,14.87
2023-04-05T22:32:00.396Z,17.47
2023-04-05T22:34:29.981Z,15.03
2023-04-05T22:36:59.441Z,22.77
2023-04-05T22:39:27.903Z,61.40
2023-04-05T22:41:56.661Z,21.17
2023-04-05T22:44:28.308Z,14.90
2023-04-05T22:46:56.396Z,16.00
2023-04-05T22:49:27.412Z,15.83
2023-04-05T22:51:57.835Z,16.40
2023-04-05T22:54:25.976Z,17.40
2023-04-05T22:56:56.491Z,16.90
2023-04-05T22:59:24.676Z,21.37
2023-04-05T23:01:55.462Z,17.37
2023-04-05T23:04:24.681Z,15.70
2023-04-05T23:06:53.852Z,16.17
2023-04-05T23:09:24.367Z,15.73
2023-04-05T23:11:52.362Z,12.50
2023-04-05T23:14:23.453Z,12.37
2023-04-05T23:16:51.570Z,12.43
2023-04-05T23:19:19.730Z,14.67
2023-04-05T23:21:47.846Z,15.40
2023-04-05T23:24:16.120Z,13.53
2023-04-05T23:26:46.894Z,13.43
2023-04-05T23:29:19.353Z,13.47
2023-04-05T23:31:50.575Z,11.50
2023-04-05T23:34:20.912Z,14.60
2023-04-05T23:36:49.886Z,12.07
2023-04-05T23:39:17.939Z,13.03
2023-04-05T23:41:47.703Z,14.07
2023-04-05T23:44:17.894Z,12.13
2023-04-05T23:46:46.208Z,12.70
2023-04-05T23:49:16.868Z,12.30
2023-04-05T23:51:47.534Z,12.90
2023-04-05T23:54:15.677Z,15.27
2023-04-05T23:56:44.803Z,13.03
2023-04-05T23:59:14.347Z,12.63
